createdAt,value
2019-05-09T00:01:03.860Z,94.00
2019-05-09T00:03:37.040Z,93.80
2019-05-09T00:06:09.943Z,93.90
2019-05-09T00:08:44.271Z,93.40
2019-05-09T00:11:17.177Z,94.00
2019-05-09T00:13:50.006Z,93.40
2019-05-09T00:16:23.628Z,93.60
2019-05-09T00:18:56.591Z,93.40
2019-05-09T00:21:35.095Z,93.80
2019-05-09T00:24:07.955Z,94.20
2019-05-09T00:26:40.765Z,94.50
2019-05-09T00:29:20.014Z,94.70
2019-05-09T00:31:59.641Z,94.80
2019-05-09T00:34:48.699Z,95.90
2019-05-09T00:37:43.085Z,94.90
2019-05-09T00:40:15.829Z,95.10
2019-05-09T00:42:48.632Z,95.20
2019-05-09T00:45:59.432Z,95.50
2019-05-09T00:48:53.330Z,95.70
2019-05-09T00:51:26.405Z,95.90
2019-05-09T00:53:59.230Z,96.20
2019-05-09T00:56:33.124Z,96.30
2019-05-09T00:59:06.078Z,96.20
2019-05-09T01:01:39.551Z,96.60
2019-05-09T01:04:13.670Z,97.00
2019-05-09T01:06:46.613Z,97.00
2019-05-09T01:09:19.573Z,97.40
2019-05-09T01:11:53.394Z,97.60
2019-05-09T01:14:26.328Z,97.70
2019-05-09T01:16:59.139Z,97.30
2019-05-09T01:19:33.868Z,97.30
2019-05-09T01:22:06.657Z,97.10
2019-05-09T01:24:39.827Z,97.00
2019-05-09T01:27:14.197Z,96.80
2019-05-09T01:29:48.267Z,96.50
2019-05-09T01:32:30.490Z,96.50
2019-05-09T01:35:03.911Z,96.10
2019-05-09T01:37:36.754Z,95.70
2019-05-09T01:40:09.817Z,95.50
2019-05-09T01:42:43.244Z,95.80
2019-05-09T01:45:16.380Z,95.50
2019-05-09T01:47:49.151Z,95.40
2019-05-09T01:50:23.307Z,94.90
2019-05-09T01:52:56.318Z,94.10
2019-05-09T01:55:48.440Z,93.10
2019-05-09T01:58:23.281Z,93.10
2019-05-09T02:00:56.148Z,92.60
2019-05-09T02:03:29.196Z,93.00
2019-05-09T02:06:03.555Z,92.60
2019-05-09T02:08:36.687Z,92.20
2019-05-09T02:11:09.663Z,92.10
2019-05-09T02:13:44.231Z,92.30
2019-05-09T02:16:36.778Z,92.40
2019-05-09T02:19:20.688Z,92.50
2019-05-09T02:21:53.533Z,92.20
2019-05-09T02:24:26.328Z,92.00
2019-05-09T02:26:59.172Z,91.60
2019-05-09T02:29:33.761Z,91.70
2019-05-09T02:32:06.741Z,91.60
2019-05-09T02:34:39.518Z,91.60
2019-05-09T02:37:12.306Z,91.90
2019-05-09T02:39:45.078Z,92.00
2019-05-09T02:42:19.596Z,91.80
2019-05-09T02:44:52.628Z,92.20
2019-05-09T02:47:28.682Z,92.60
2019-05-09T02:50:00.448Z,93.10
2019-05-09T02:52:33.228Z,93.30
2019-05-09T02:55:09.882Z,93.00
2019-05-09T02:57:42.544Z,93.10
2019-05-09T03:00:33.968Z,93.30
2019-05-09T03:03:15.012Z,93.60
2019-05-09T03:05:48.706Z,93.20
2019-05-09T03:08:21.786Z,93.00
2019-05-09T03:10:54.602Z,92.70
2019-05-09T03:13:29.101Z,92.50
2019-05-09T03:16:08.948Z,92.90
2019-05-09T03:18:41.765Z,93.10
2019-05-09T03:21:24.820Z,92.80
2019-05-09T03:23:59.214Z,92.70
2019-05-09T03:26:38.471Z,92.80
2019-05-09T03:29:35.769Z,92.80
2019-05-09T03:32:09.451Z,92.70
2019-05-09T03:34:42.440Z,93.00
2019-05-09T03:37:17.450Z,92.30
2019-05-09T03:39:49.989Z,92.20
2019-05-09T03:42:36.469Z,92.60
2019-05-09T03:44:58.204Z,91.80
2019-05-09T03:47:47.840Z,91.70
2019-05-09T03:50:20.764Z,91.30
2019-05-09T03:52:53.634Z,90.00
2019-05-09T03:55:31.009Z,89.60
2019-05-09T03:58:09.129Z,89.70
2019-05-09T04:00:41.933Z,89.90
2019-05-09T04:03:14.772Z,90.00
2019-05-09T04:05:58.412Z,90.10
2019-05-09T04:08:22.334Z,90.00
2019-05-09T04:10:55.133Z,89.50
2019-05-09T04:13:33.516Z,89.90
2019-05-09T04:16:07.512Z,91.20
2019-05-09T04:18:40.572Z,92.40
2019-05-09T04:21:13.372Z,93.00
2019-05-09T04:23:48.071Z,93.70
2019-05-09T04:26:45.222Z,93.70
2019-05-09T04:29:18.455Z,94.30
2019-05-09T04:31:51.460Z,94.90
2019-05-09T04:34:24.229Z,94.60
2019-05-09T04:36:57.746Z,95.40
2019-05-09T04:39:30.513Z,94.50
2019-05-09T04:42:05.443Z,94.50
2019-05-09T04:44:57.315Z,94.80
2019-05-09T04:47:24.695Z,94.60
2019-05-09T04:49:58.406Z,90.90
2019-05-09T04:52:31.347Z,82.10
2019-05-09T04:55:04.630Z,76.60
2019-05-09T04:57:38.275Z,72.80
2019-05-09T05:00:13.396Z,67.20
2019-05-09T05:02:48.908Z,64.70
2019-05-09T05:05:21.716Z,62.00
2019-05-09T05:07:54.553Z,60.40
2019-05-09T05:10:27.430Z,58.70
2019-05-09T05:13:00.289Z,59.30
2019-05-09T05:15:33.108Z,58.90
2019-05-09T05:18:05.987Z,61.50
2019-05-09T05:20:38.806Z,63.50
2019-05-09T05:23:19.735Z,64.70
2019-05-09T05:25:52.553Z,62.80
2019-05-09T05:28:27.682Z,60.20
2019-05-09T05:31:00.084Z,63.40
2019-05-09T05:33:39.563Z,66.80
2019-05-09T05:36:12.901Z,69.20
2019-05-09T05:38:47.898Z,71.40
2019-05-09T05:41:20.522Z,73.90
2019-05-09T05:43:53.332Z,75.20
2019-05-09T05:46:39.253Z,68.30
2019-05-09T05:49:12.102Z,61.70
2019-05-09T05:51:50.463Z,62.40
2019-05-09T05:54:23.273Z,66.30
2019-05-09T05:56:57.819Z,66.40
2019-05-09T05:59:30.851Z,61.60
2019-05-09T06:02:03.666Z,60.90
2019-05-09T06:04:38.115Z,63.70
2019-05-09T06:07:11.235Z,67.10
2019-05-09T06:09:44.087Z,68.90
2019-05-09T06:12:18.484Z,70.60
2019-05-09T06:14:51.550Z,72.20
2019-05-09T06:17:24.365Z,72.10
2019-05-09T06:19:58.971Z,71.70
2019-05-09T06:22:31.914Z,72.80
2019-05-09T06:25:09.230Z,73.30
2019-05-09T06:27:42.298Z,74.00
2019-05-09T06:30:28.147Z,75.20
2019-05-09T06:33:04.651Z,77.30
2019-05-09T06:35:37.927Z,76.60
2019-05-09T06:38:10.740Z,76.90
2019-05-09T06:40:47.026Z,78.00
2019-05-09T06:43:22.919Z,78.50
2019-05-09T06:46:21.199Z,81.10
2019-05-09T06:48:54.510Z,81.50
2019-05-09T06:51:27.773Z,81.90
2019-05-09T06:54:00.761Z,81.10
2019-05-09T06:56:33.606Z,81.90
2019-05-09T06:59:07.623Z,81.10
2019-05-09T07:01:52.810Z,81.40
2019-05-09T07:04:48.080Z,82.40
2019-05-09T07:07:37.395Z,82.00
2019-05-09T07:10:10.864Z,83.10
2019-05-09T07:12:43.774Z,82.80
2019-05-09T07:15:17.739Z,82.30
2019-05-09T07:17:50.744Z,82.70
2019-05-09T07:20:23.557Z,82.20
2019-05-09T07:22:58.364Z,83.20
2019-05-09T07:26:09.097Z,82.20
2019-05-09T07:28:42.104Z,81.20
2019-05-09T07:31:28.665Z,84.10
2019-05-09T07:34:23.882Z,84.80
2019-05-09T07:36:58.078Z,86.30
2019-05-09T07:39:31.110Z,88.30
2019-05-09T07:42:03.935Z,88.80
2019-05-09T07:44:46.183Z,89.00
2019-05-09T07:47:11.545Z,88.60
2019-05-09T07:49:44.364Z,88.60
2019-05-09T07:52:18.564Z,87.30
2019-05-09T07:54:51.659Z,87.00
2019-05-09T07:57:24.491Z,87.50
2019-05-09T07:59:58.396Z,87.30
2019-05-09T08:02:31.504Z,87.70
2019-05-09T08:05:04.453Z,87.20
2019-05-09T08:07:38.084Z,87.90
2019-05-09T08:10:11.663Z,85.20
2019-05-09T08:12:44.488Z,86.20
2019-05-09T08:15:19.986Z,86.10
2019-05-09T08:17:52.103Z,87.30
2019-05-09T08:20:24.944Z,87.70
2019-05-09T08:23:01.672Z,88.40
2019-05-09T08:25:32.516Z,90.00
2019-05-09T08:28:05.351Z,90.30
2019-05-09T08:30:40.419Z,90.80
2019-05-09T08:33:12.951Z,90.10
2019-05-09T08:35:49.917Z,90.60
2019-05-09T08:38:20.551Z,90.30
2019-05-09T08:41:09.933Z,89.30
2019-05-09T08:43:42.727Z,89.70
2019-05-09T08:46:17.897Z,89.20
2019-05-09T08:48:50.257Z,88.70
2019-05-09T08:52:02.635Z,89.00
2019-05-09T08:54:38.056Z,87.70
2019-05-09T08:57:11.294Z,86.50
2019-05-09T08:59:47.008Z,86.60
2019-05-09T09:02:22.172Z,86.40
2019-05-09T09:04:53.659Z,86.50
2019-05-09T09:07:29.654Z,85.50
2019-05-09T09:10:01.194Z,86.40
2019-05-09T09:12:34.674Z,86.80
2019-05-09T09:15:08.176Z,86.90
2019-05-09T09:17:41.003Z,87.90
2019-05-09T09:20:14.267Z,88.00
2019-05-09T09:22:47.970Z,86.90
2019-05-09T09:25:20.982Z,86.00
2019-05-09T09:27:53.874Z,86.90
2019-05-09T09:30:29.250Z,84.80
2019-05-09T09:33:01.452Z,84.50
2019-05-09T09:35:34.274Z,83.70
2019-05-09T09:38:09.332Z,84.80
2019-05-09T09:40:41.826Z,83.00
2019-05-09T09:43:14.651Z,86.40
2019-05-09T09:45:48.215Z,86.10
2019-05-09T09:48:22.236Z,87.20
2019-05-09T09:50:55.209Z,88.20
2019-05-09T09:53:28.042Z,87.70
2019-05-09T09:56:00.875Z,88.70
2019-05-09T09:58:33.708Z,89.10
2019-05-09T10:01:18.185Z,90.50
2019-05-09T10:04:15.276Z,89.70
2019-05-09T10:06:34.128Z,90.00
2019-05-09T10:09:09.368Z,90.90
2019-05-09T10:11:43.544Z,90.90
2019-05-09T10:14:22.222Z,90.80
2019-05-09T10:17:21.313Z,92.00
2019-05-09T10:20:21.279Z,91.20
2019-05-09T10:23:00.354Z,89.80
2019-05-09T10:25:28.964Z,89.10
2019-05-09T10:28:02.012Z,88.20
2019-05-09T10:30:34.868Z,87.70
2019-05-09T10:33:09.170Z,85.00
2019-05-09T10:35:42.346Z,85.50
2019-05-09T10:38:15.151Z,83.30
2019-05-09T10:40:48.741Z,84.00
2019-05-09T10:43:35.632Z,82.80
2019-05-09T10:46:22.454Z,83.80
2019-05-09T10:49:00.134Z,84.50
2019-05-09T10:51:32.991Z,85.20
2019-05-09T10:54:08.126Z,85.00
2019-05-09T10:56:40.659Z,87.00
2019-05-09T10:59:13.517Z,85.60
2019-05-09T11:01:49.376Z,85.00
2019-05-09T11:04:21.172Z,85.90
2019-05-09T11:06:54.126Z,85.20
2019-05-09T11:09:29.121Z,86.00
2019-05-09T11:12:01.785Z,86.70
2019-05-09T11:14:37.472Z,86.90
2019-05-09T11:17:17.624Z,86.20
2019-05-09T11:19:44.154Z,85.50
2019-05-09T11:22:18.332Z,84.30
2019-05-09T11:24:51.630Z,85.40
2019-05-09T11:27:24.561Z,86.30
2019-05-09T11:29:57.971Z,84.30
2019-05-09T11:32:30.952Z,86.30
2019-05-09T11:35:04.882Z,86.60
2019-05-09T11:37:38.406Z,88.40
2019-05-09T11:40:12.390Z,85.10
2019-05-09T11:42:45.233Z,84.20
2019-05-09T11:45:18.158Z,83.00
2019-05-09T11:47:51.014Z,86.00
2019-05-09T11:50:23.859Z,86.40
2019-05-09T11:52:59.733Z,86.20
2019-05-09T11:55:35.928Z,87.50
2019-05-09T11:58:08.383Z,87.00
2019-05-09T12:00:40.975Z,88.20
2019-05-09T12:03:13.800Z,87.30
2019-05-09T12:05:47.654Z,87.10
2019-05-09T12:08:20.597Z,87.90
2019-05-09T12:10:53.483Z,88.30
2019-05-09T12:13:26.329Z,88.10
2019-05-09T12:15:59.179Z,87.40
2019-05-09T12:18:32.049Z,86.00
2019-05-09T12:21:04.924Z,87.10
2019-05-09T12:23:37.909Z,87.60
2019-05-09T12:26:10.941Z,87.40
2019-05-09T12:28:43.789Z,88.10
2019-05-09T12:31:18.219Z,88.70
2019-05-09T12:33:51.424Z,88.60
2019-05-09T12:36:24.295Z,89.80
2019-05-09T12:38:59.015Z,91.50
2019-05-09T12:41:32.053Z,93.00
2019-05-09T12:44:04.923Z,92.40
2019-05-09T12:46:39.291Z,93.60
2019-05-09T12:49:12.585Z,95.00
2019-05-09T12:51:45.470Z,95.10
2019-05-09T12:54:19.086Z,94.80
2019-05-09T12:56:52.101Z,95.80
2019-05-09T12:59:24.905Z,95.90
2019-05-09T13:01:58.189Z,94.80
2019-05-09T13:04:31.212Z,96.00
2019-05-09T13:07:04.107Z,95.50
2019-05-09T13:09:36.987Z,94.10
2019-05-09T13:12:09.892Z,95.40
2019-05-09T13:14:42.754Z,95.50
2019-05-09T13:17:43.801Z,96.00
2019-05-09T13:20:18.020Z,95.00
2019-05-09T13:22:50.992Z,94.00
2019-05-09T13:25:23.845Z,95.50
2019-05-09T13:27:58.222Z,95.30
2019-05-09T13:30:31.152Z,95.60
2019-05-09T13:33:07.250Z,95.90
2019-05-09T13:35:39.419Z,96.10
2019-05-09T13:38:13.557Z,97.20
2019-05-09T13:40:52.870Z,98.10
2019-05-09T13:43:21.168Z,98.60
2019-05-09T13:45:54.078Z,98.00
2019-05-09T13:48:54.992Z,97.90
2019-05-09T13:51:01.806Z,97.90
2019-05-09T13:53:34.665Z,98.40
2019-05-09T13:56:08.474Z,98.50
2019-05-09T13:58:41.544Z,98.20
2019-05-09T14:01:14.499Z,98.10
2019-05-09T14:03:49.073Z,98.30
2019-05-09T14:06:22.134Z,97.80
2019-05-09T14:08:55.043Z,98.30
2019-05-09T14:11:29.179Z,98.60
2019-05-09T14:14:02.220Z,98.80
2019-05-09T14:16:35.086Z,98.70
2019-05-09T14:19:30.027Z,98.60
2019-05-09T14:21:43.829Z,98.10
2019-05-09T14:24:19.205Z,98.20
2019-05-09T14:26:51.444Z,98.30
2019-05-09T14:29:24.284Z,99.00
2019-05-09T14:31:57.131Z,98.70
2019-05-09T14:34:30.334Z,98.50
2019-05-09T14:37:03.235Z,99.00
2019-05-09T14:39:38.364Z,98.80
2019-05-09T14:42:10.878Z,99.30
2019-05-09T14:44:43.741Z,98.60
2019-05-09T14:47:17.662Z,98.10
2019-05-09T14:49:51.432Z,98.60
2019-05-09T14:52:24.338Z,98.30
2019-05-09T14:54:58.187Z,97.40
2019-05-09T14:57:31.160Z,97.70
2019-05-09T15:00:04.467Z,96.10
2019-05-09T15:02:38.917Z,94.20
2019-05-09T15:05:12.320Z,91.80
2019-05-09T15:07:47.511Z,86.70
2019-05-09T15:10:20.010Z,86.00
2019-05-09T15:12:52.934Z,81.10
2019-05-09T15:15:29.142Z,82.90
2019-05-09T15:18:00.694Z,83.50
2019-05-09T15:20:33.836Z,80.70
2019-05-09T15:23:08.614Z,81.30
2019-05-09T15:25:41.486Z,81.90
2019-05-09T15:28:14.366Z,79.10
2019-05-09T15:30:48.938Z,79.10
2019-05-09T15:33:21.964Z,79.40
2019-05-09T15:35:54.820Z,79.30
2019-05-09T15:38:29.042Z,79.00
2019-05-09T15:41:02.157Z,79.00
2019-05-09T15:43:35.071Z,78.40
2019-05-09T15:46:27.901Z,77.50
2019-05-09T15:49:00.863Z,75.90
2019-05-09T15:51:33.728Z,79.60
2019-05-09T15:54:08.273Z,79.70
2019-05-09T15:56:44.124Z,79.70
2019-05-09T15:59:18.234Z,81.80
2019-05-09T16:01:50.833Z,81.20
2019-05-09T16:04:23.822Z,80.50
2019-05-09T16:06:56.928Z,79.60
2019-05-09T16:09:30.011Z,80.60
2019-05-09T16:12:02.877Z,80.00
2019-05-09T16:14:37.944Z,80.80
2019-05-09T16:17:10.553Z,80.60
2019-05-09T16:19:43.358Z,79.60
2019-05-09T16:22:18.774Z,79.20
2019-05-09T16:24:50.882Z,81.80
2019-05-09T16:27:23.646Z,84.10
2019-05-09T16:29:57.985Z,83.80
2019-05-09T16:32:30.808Z,83.80
2019-05-09T16:35:03.777Z,82.00
2019-05-09T16:37:56.772Z,82.40
2019-05-09T16:40:11.603Z,83.50
2019-05-09T16:42:44.581Z,80.90
2019-05-09T16:45:18.208Z,80.20
2019-05-09T16:47:51.409Z,79.40
2019-05-09T16:50:24.397Z,78.70
2019-05-09T16:52:58.480Z,78.50
2019-05-09T16:55:35.017Z,76.00
2019-05-09T16:58:08.910Z,77.60
2019-05-09T17:00:49.321Z,78.60
2019-05-09T17:03:22.212Z,78.40
2019-05-09T17:05:55.098Z,78.80
2019-05-09T17:08:28.421Z,79.00
2019-05-09T17:11:01.623Z,78.70
2019-05-09T17:13:34.519Z,79.70
2019-05-09T17:16:07.718Z,79.60
2019-05-09T17:18:40.615Z,80.80
2019-05-09T17:21:30.816Z,83.70
2019-05-09T17:24:05.655Z,84.40
2019-05-09T17:26:38.585Z,83.90
2019-05-09T17:29:11.393Z,83.00
2019-05-09T17:31:45.033Z,83.40
2019-05-09T17:34:18.183Z,81.90
2019-05-09T17:36:51.459Z,81.70
2019-05-09T17:39:24.666Z,80.60
2019-05-09T17:41:58.249Z,81.70
2019-05-09T17:44:31.494Z,82.70
2019-05-09T17:47:04.350Z,82.70
2019-05-09T17:49:37.569Z,82.30
2019-05-09T17:52:10.588Z,83.40
2019-05-09T17:54:43.552Z,81.50
2019-05-09T17:57:18.774Z,81.70
2019-05-09T17:59:51.524Z,84.30
2019-05-09T18:02:24.534Z,83.50
2019-05-09T18:04:58.245Z,84.40
2019-05-09T18:07:31.288Z,84.50
2019-05-09T18:10:07.611Z,85.10
2019-05-09T18:12:40.597Z,85.40
2019-05-09T18:15:13.678Z,86.80
2019-05-09T18:17:47.883Z,86.70
2019-05-09T18:20:21.348Z,86.00
2019-05-09T18:22:54.246Z,85.90
2019-05-09T18:25:27.185Z,85.90
2019-05-09T18:28:00.152Z,85.90
2019-05-09T18:30:33.101Z,85.80
2019-05-09T18:33:14.033Z,85.90
2019-05-09T18:35:48.145Z,86.80
2019-05-09T18:38:30.872Z,86.80
2019-05-09T18:41:06.995Z,87.50
2019-05-09T18:43:38.687Z,88.80
2019-05-09T18:46:12.893Z,89.60
2019-05-09T18:48:47.536Z,89.30
2019-05-09T18:51:21.484Z,89.50
2019-05-09T18:53:56.152Z,89.80
2019-05-09T18:56:29.142Z,91.10
2019-05-09T18:59:02.171Z,91.40
2019-05-09T19:01:35.481Z,91.60
2019-05-09T19:04:08.317Z,91.40
2019-05-09T19:06:41.234Z,91.40
2019-05-09T19:09:14.182Z,91.90
2019-05-09T19:11:47.177Z,91.70
2019-05-09T19:14:22.134Z,91.80
2019-05-09T19:17:17.570Z,92.00
2019-05-09T19:20:17.176Z,92.10
2019-05-09T19:22:50.004Z,92.40
2019-05-09T19:25:23.058Z,92.40
2019-05-09T19:27:56.080Z,92.70
2019-05-09T19:30:29.026Z,93.90
2019-05-09T19:33:01.989Z,94.40
2019-05-09T19:35:35.017Z,94.40
2019-05-09T19:38:08.001Z,94.80
2019-05-09T19:40:41.045Z,94.90
2019-05-09T19:43:14.009Z,95.00
2019-05-09T19:45:46.975Z,95.20
2019-05-09T19:48:19.821Z,95.10
2019-05-09T19:50:52.697Z,94.80
2019-05-09T19:53:25.598Z,94.10
2019-05-09T19:55:58.531Z,94.30
2019-05-09T19:58:31.400Z,93.60
2019-05-09T20:01:04.407Z,93.00
2019-05-09T20:03:37.333Z,93.90
2019-05-09T20:06:10.334Z,94.30
2019-05-09T20:08:43.226Z,94.40
2019-05-09T20:11:24.868Z,94.10
2019-05-09T20:14:10.284Z,94.00
2019-05-09T20:16:46.229Z,93.80
2019-05-09T20:19:19.092Z,93.20
2019-05-09T20:21:52.217Z,92.50
2019-05-09T20:24:25.329Z,92.70
2019-05-09T20:26:58.346Z,93.60
2019-05-09T20:29:31.349Z,94.10
2019-05-09T20:32:04.378Z,93.70
2019-05-09T20:34:37.402Z,94.10
2019-05-09T20:37:10.321Z,94.20
2019-05-09T20:39:43.367Z,94.60
2019-05-09T20:42:16.348Z,94.20
2019-05-09T20:44:50.327Z,94.70
2019-05-09T20:47:23.183Z,94.50
2019-05-09T20:49:56.084Z,94.40
2019-05-09T20:52:30.084Z,94.40
2019-05-09T20:55:03.444Z,94.70
2019-05-09T20:57:36.436Z,94.80
2019-05-09T21:00:09.658Z,94.40
2019-05-09T21:02:42.766Z,94.00
2019-05-09T21:05:15.767Z,93.90
2019-05-09T21:07:49.204Z,93.40
2019-05-09T21:10:22.092Z,93.10
2019-05-09T21:12:55.940Z,92.60
2019-05-09T21:15:28.892Z,91.50
2019-05-09T21:18:01.882Z,88.70
2019-05-09T21:20:34.826Z,87.60
2019-05-09T21:23:07.740Z,87.30
2019-05-09T21:25:40.584Z,87.40
2019-05-09T21:28:13.513Z,87.60
2019-05-09T21:30:46.398Z,88.70
2019-05-09T21:33:19.229Z,88.60
2019-05-09T21:35:52.177Z,88.50
2019-05-09T21:38:25.099Z,90.00
2019-05-09T21:40:57.995Z,90.10
2019-05-09T21:43:30.859Z,90.60
2019-05-09T21:46:03.668Z,90.50
2019-05-09T21:48:38.635Z,90.80
2019-05-09T21:51:11.418Z,90.90
2019-05-09T21:53:44.268Z,90.70
2019-05-09T21:56:17.118Z,90.80
2019-05-09T21:58:49.964Z,91.10
2019-05-09T22:01:23.407Z,91.40
2019-05-09T22:03:56.886Z,91.90
2019-05-09T22:06:29.768Z,91.40
2019-05-09T22:09:07.383Z,91.70
2019-05-09T22:11:40.211Z,91.80
2019-05-09T22:14:13.100Z,91.80
2019-05-09T22:16:47.859Z,91.80
2019-05-09T22:19:20.719Z,91.80
2019-05-09T22:21:53.576Z,91.10
2019-05-09T22:24:26.514Z,91.50
2019-05-09T22:26:59.333Z,91.30
2019-05-09T22:29:32.238Z,92.20
2019-05-09T22:32:05.012Z,92.40
2019-05-09T22:34:37.865Z,92.20
2019-05-09T22:37:10.695Z,92.50
2019-05-09T22:39:43.592Z,92.30
2019-05-09T22:42:16.600Z,91.90
2019-05-09T22:44:49.386Z,91.50
2019-05-09T22:47:22.255Z,91.50
2019-05-09T22:49:55.166Z,90.90
2019-05-09T22:52:27.981Z,90.90
2019-05-09T22:55:00.824Z,90.90
2019-05-09T22:57:33.804Z,91.20
2019-05-09T23:00:08.489Z,91.40
2019-05-09T23:02:43.364Z,91.30
2019-05-09T23:05:16.348Z,91.40
2019-05-09T23:07:49.173Z,91.20
2019-05-09T23:10:21.965Z,91.00
2019-05-09T23:12:54.808Z,91.00
2019-05-09T23:15:27.637Z,90.80
2019-05-09T23:18:00.479Z,90.70
2019-05-09T23:20:47.781Z,91.00
2019-05-09T23:23:28.266Z,91.00
2019-05-09T23:26:01.145Z,90.80
2019-05-09T23:28:33.973Z,91.30
2019-05-09T23:31:10.701Z,91.50
2019-05-09T23:33:43.680Z,91.30
2019-05-09T23:36:16.494Z,91.80
2019-05-09T23:39:07.372Z,92.40
2019-05-09T23:41:40.211Z,92.70
2019-05-09T23:44:13.086Z,93.20
2019-05-09T23:46:46.091Z,93.60
2019-05-09T23:49:18.902Z,93.90
2019-05-09T23:51:51.706Z,94.20
2019-05-09T23:54:46.757Z,94.80
2019-05-09T23:57:36.131Z,94.80
